createdAt,value
2022-10-22T00:00:46.905Z,8.23
2022-10-22T00:03:14.506Z,7.70
2022-10-22T00:05:41.927Z,7.43
2022-10-22T00:08:09.310Z,7.15
2022-10-22T00:10:39.427Z,7.45
2022-10-22T00:13:06.897Z,6.78
2022-10-22T00:15:34.298Z,7.20
2022-10-22T00:18:01.938Z,7.35
2022-10-22T00:20:29.379Z,6.82
2022-10-22T00:22:56.783Z,6.45
2022-10-22T00:25:23.905Z,6.78
2022-10-22T00:27:51.350Z,8.93
2022-10-22T00:30:19.021Z,8.00
2022-10-22T00:32:46.502Z,6.82
2022-10-22T00:35:14.396Z,8.63
2022-10-22T00:37:41.828Z,9.35
2022-10-22T00:40:10.043Z,8.43
2022-10-22T00:42:38.021Z,9.65
2022-10-22T00:45:20.938Z,8.50
2022-10-22T00:48:08.784Z,8.43
2022-10-22T00:50:44.755Z,9.85
2022-10-22T00:53:19.178Z,7.77
2022-10-22T00:55:51.511Z,7.22
2022-10-22T00:58:21.817Z,8.02
2022-10-22T01:00:49.288Z,9.55
2022-10-22T01:03:17.303Z,8.75
2022-10-22T01:05:59.372Z,8.93
2022-10-22T01:08:42.255Z,9.60
2022-10-22T01:11:15.540Z,7.70
2022-10-22T01:13:59.213Z,8.48
2022-10-22T01:16:36.881Z,7.28
2022-10-22T01:19:33.183Z,9.53
2022-10-22T01:22:17.815Z,7.95
2022-10-22T01:25:12.505Z,7.85
2022-10-22T01:28:08.000Z,7.55
2022-10-22T01:30:37.248Z,8.27
2022-10-22T01:33:09.583Z,9.27
2022-10-22T01:35:42.280Z,9.40
2022-10-22T01:38:16.906Z,8.65
2022-10-22T01:40:44.578Z,7.57
2022-10-22T01:43:12.067Z,7.60
2022-10-22T01:45:48.771Z,8.77
2022-10-22T01:48:41.331Z,6.95
2022-10-22T01:51:46.661Z,7.85
2022-10-22T01:54:38.851Z,8.07
2022-10-22T01:57:20.171Z,8.00
2022-10-22T01:59:54.027Z,8.57
2022-10-22T02:02:42.560Z,6.53
2022-10-22T02:05:12.744Z,7.32
2022-10-22T02:07:54.927Z,5.45
2022-10-22T02:10:24.332Z,6.40
2022-10-22T02:12:55.822Z,9.13
2022-10-22T02:15:26.422Z,9.45
2022-10-22T02:17:56.783Z,9.05
2022-10-22T02:20:32.711Z,8.52
2022-10-22T02:23:02.061Z,8.93
2022-10-22T02:25:35.018Z,8.97
2022-10-22T02:28:11.102Z,8.23
2022-10-22T02:30:39.944Z,8.23
2022-10-22T02:33:18.137Z,7.43
2022-10-22T02:35:46.900Z,6.82
2022-10-22T02:38:14.789Z,9.10
2022-10-22T02:40:42.234Z,7.10
2022-10-22T02:43:09.691Z,6.85
2022-10-22T02:45:38.032Z,8.23
2022-10-22T02:48:05.771Z,9.38
2022-10-22T02:50:33.191Z,7.67
2022-10-22T02:53:00.476Z,10.85
2022-10-22T02:55:27.833Z,7.05
2022-10-22T02:57:55.672Z,6.40
2022-10-22T03:00:23.330Z,8.55
2022-10-22T03:02:50.489Z,9.23
2022-10-22T03:05:17.976Z,6.60
2022-10-22T03:07:45.265Z,7.38
2022-10-22T03:10:12.673Z,7.30
2022-10-22T03:12:40.026Z,9.02
2022-10-22T03:15:07.701Z,8.67
2022-10-22T03:17:35.122Z,9.00
2022-10-22T03:20:02.585Z,7.25
2022-10-22T03:22:32.864Z,9.82
2022-10-22T03:25:04.509Z,6.85
2022-10-22T03:27:31.826Z,7.60
2022-10-22T03:30:00.185Z,7.85
2022-10-22T03:32:27.518Z,8.23
2022-10-22T03:34:54.806Z,8.32
2022-10-22T03:37:22.944Z,7.30
2022-10-22T03:39:50.521Z,8.33
2022-10-22T03:42:18.057Z,9.32
2022-10-22T03:44:45.528Z,9.82
2022-10-22T03:47:12.934Z,8.55
2022-10-22T03:49:40.272Z,7.82
2022-10-22T03:52:14.707Z,9.23
2022-10-22T03:54:42.832Z,7.07
2022-10-22T03:57:10.898Z,8.40
2022-10-22T03:59:40.590Z,8.80
2022-10-22T04:02:08.342Z,9.27
2022-10-22T04:04:36.822Z,8.33
2022-10-22T04:07:05.506Z,8.13
2022-10-22T04:09:33.822Z,7.85
2022-10-22T04:12:01.580Z,7.78
2022-10-22T04:14:28.984Z,8.48
2022-10-22T04:16:56.263Z,8.97
2022-10-22T04:19:23.457Z,9.48
2022-10-22T04:21:50.825Z,8.27
2022-10-22T04:24:18.154Z,8.13
2022-10-22T04:26:45.449Z,8.20
2022-10-22T04:29:15.979Z,7.83
2022-10-22T04:31:44.008Z,10.07
2022-10-22T04:34:11.385Z,7.55
2022-10-22T04:36:38.801Z,10.13
2022-10-22T04:39:06.486Z,8.30
2022-10-22T04:41:37.496Z,15.10
2022-10-22T04:44:06.075Z,7.65
2022-10-22T04:46:35.196Z,9.48
2022-10-22T04:49:04.326Z,8.48
2022-10-22T04:51:32.486Z,9.25
2022-10-22T04:54:00.082Z,7.87
2022-10-22T04:56:30.806Z,8.02
2022-10-22T04:59:06.151Z,8.18
2022-10-22T05:01:37.084Z,7.97
2022-10-22T05:04:09.436Z,8.95
2022-10-22T05:06:38.072Z,9.67
2022-10-22T05:09:08.866Z,9.43
2022-10-22T05:11:38.651Z,7.50
2022-10-22T05:14:08.117Z,9.48
2022-10-22T05:16:38.361Z,9.48
2022-10-22T05:19:06.837Z,8.40
2022-10-22T05:21:34.674Z,8.90
2022-10-22T05:24:02.117Z,11.70
2022-10-22T05:26:29.835Z,8.73
2022-10-22T05:28:57.522Z,8.48
2022-10-22T05:31:25.715Z,8.03
2022-10-22T05:33:53.112Z,7.68
2022-10-22T05:36:22.758Z,8.23
2022-10-22T05:38:50.593Z,7.38
2022-10-22T05:41:20.755Z,9.65
2022-10-22T05:43:48.312Z,11.33
2022-10-22T05:46:22.583Z,12.25
2022-10-22T05:48:56.632Z,12.82
2022-10-22T05:51:25.792Z,8.00
2022-10-22T05:53:58.881Z,10.65
2022-10-22T05:56:27.712Z,11.73
2022-10-22T05:58:56.634Z,9.45
2022-10-22T06:01:29.648Z,9.75
2022-10-22T06:03:59.512Z,9.52
2022-10-22T06:06:39.276Z,9.80
2022-10-22T06:09:29.806Z,8.57
2022-10-22T06:11:57.843Z,8.15
2022-10-22T06:14:26.206Z,8.15
2022-10-22T06:16:54.251Z,7.47
2022-10-22T06:19:25.923Z,10.65
2022-10-22T06:21:53.916Z,6.13
2022-10-22T06:24:21.734Z,8.05
2022-10-22T06:26:53.403Z,6.57
2022-10-22T06:29:21.192Z,8.02
2022-10-22T06:31:49.264Z,6.82
2022-10-22T06:34:19.162Z,7.03
2022-10-22T06:36:47.992Z,7.05
2022-10-22T06:39:17.177Z,7.05
2022-10-22T06:41:44.875Z,8.27
2022-10-22T06:44:16.847Z,8.15
2022-10-22T06:46:44.855Z,7.37
2022-10-22T06:49:16.127Z,8.00
2022-10-22T06:51:43.712Z,11.55
2022-10-22T06:54:11.611Z,7.82
2022-10-22T06:56:38.913Z,6.43
2022-10-22T06:59:06.243Z,8.37
2022-10-22T07:01:35.051Z,8.73
2022-10-22T07:04:03.096Z,7.80
2022-10-22T07:06:30.882Z,7.78
2022-10-22T07:08:59.935Z,8.82
2022-10-22T07:11:30.117Z,9.73
2022-10-22T07:13:59.592Z,7.50
2022-10-22T07:16:31.326Z,8.13
2022-10-22T07:19:04.167Z,6.90
2022-10-22T07:21:32.122Z,6.95
2022-10-22T07:23:59.637Z,9.13
2022-10-22T07:26:31.196Z,8.23
2022-10-22T07:28:59.800Z,8.73
2022-10-22T07:31:27.557Z,8.13
2022-10-22T07:33:54.956Z,8.07
2022-10-22T07:36:22.593Z,7.37
2022-10-22T07:38:57.758Z,6.88
2022-10-22T07:41:25.996Z,7.38
2022-10-22T07:43:53.516Z,6.82
2022-10-22T07:46:21.438Z,8.63
2022-10-22T07:48:49.166Z,8.17
2022-10-22T07:51:17.252Z,7.05
2022-10-22T07:53:44.636Z,7.45
2022-10-22T07:56:12.289Z,6.55
2022-10-22T07:58:39.961Z,8.95
2022-10-22T08:01:07.366Z,8.80
2022-10-22T08:03:35.284Z,6.78
2022-10-22T08:06:03.245Z,6.75
2022-10-22T08:08:31.144Z,6.70
2022-10-22T08:11:00.809Z,6.70
2022-10-22T08:13:30.910Z,8.07
2022-10-22T08:16:00.730Z,8.52
2022-10-22T08:18:28.531Z,7.82
2022-10-22T08:20:55.856Z,6.95
2022-10-22T08:23:27.479Z,7.30
2022-10-22T08:25:57.134Z,7.63
2022-10-22T08:28:24.782Z,8.52
2022-10-22T08:30:52.407Z,6.57
2022-10-22T08:33:21.091Z,7.32
2022-10-22T08:35:51.018Z,7.95
2022-10-22T08:38:18.909Z,7.20
2022-10-22T08:40:52.531Z,10.80
2022-10-22T08:43:47.174Z,7.22
2022-10-22T08:46:46.894Z,8.55
2022-10-22T08:49:22.205Z,7.03
2022-10-22T08:51:49.821Z,8.40
2022-10-22T08:54:51.169Z,7.97
2022-10-22T08:57:36.967Z,10.05
2022-10-22T09:00:36.778Z,7.63
2022-10-22T09:03:22.769Z,7.68
2022-10-22T09:06:15.046Z,7.90
2022-10-22T09:08:45.233Z,8.15
2022-10-22T09:11:33.206Z,7.38
2022-10-22T09:14:01.496Z,7.15
2022-10-22T09:16:53.124Z,7.55
2022-10-22T09:19:33.699Z,9.00
2022-10-22T09:22:24.868Z,8.10
2022-10-22T09:25:01.260Z,8.00
2022-10-22T09:27:31.527Z,7.00
2022-10-22T09:29:58.860Z,8.88
2022-10-22T09:32:26.533Z,7.97
2022-10-22T09:34:57.488Z,8.05
2022-10-22T09:37:30.110Z,8.75
2022-10-22T09:39:59.324Z,12.52
2022-10-22T09:42:26.779Z,12.05
2022-10-22T09:44:57.736Z,8.10
2022-10-22T09:47:43.421Z,8.23
2022-10-22T09:50:38.769Z,7.25
2022-10-22T09:53:21.489Z,7.55
2022-10-22T09:56:11.169Z,7.45
2022-10-22T09:58:49.561Z,10.27
2022-10-22T10:01:29.764Z,6.53
2022-10-22T10:04:09.411Z,8.45
2022-10-22T10:06:40.565Z,7.45
2022-10-22T10:09:17.975Z,8.77
2022-10-22T10:12:19.448Z,10.50
2022-10-22T10:15:22.264Z,8.05
2022-10-22T10:18:38.755Z,11.48
2022-10-22T10:21:47.605Z,8.52
2022-10-22T10:24:30.527Z,8.10
2022-10-22T10:27:31.365Z,9.43
2022-10-22T10:30:13.822Z,8.85
2022-10-22T10:32:59.152Z,8.70
2022-10-22T10:35:45.004Z,8.48
2022-10-22T10:38:34.302Z,7.35
2022-10-22T10:41:28.766Z,7.37
2022-10-22T10:44:21.166Z,7.93
2022-10-22T10:47:31.728Z,10.23
2022-10-22T10:50:28.004Z,8.43
2022-10-22T10:53:14.731Z,8.35
2022-10-22T10:55:53.815Z,7.87
2022-10-22T10:59:00.700Z,9.73
2022-10-22T11:02:06.815Z,7.32
2022-10-22T11:04:58.805Z,11.32
2022-10-22T11:07:35.336Z,9.65
2022-10-22T11:10:29.687Z,8.57
2022-10-22T11:13:06.300Z,9.10
2022-10-22T11:15:39.770Z,9.05
2022-10-22T11:19:04.970Z,10.65
2022-10-22T11:21:44.684Z,8.55
2022-10-22T11:24:11.926Z,10.73
2022-10-22T11:26:49.301Z,10.50
2022-10-22T11:29:27.210Z,9.27
2022-10-22T11:31:58.349Z,7.82
2022-10-22T11:34:36.406Z,8.98
2022-10-22T11:37:06.645Z,9.95
2022-10-22T11:39:49.649Z,10.07
2022-10-22T11:42:22.891Z,9.93
2022-10-22T11:45:02.765Z,8.95
2022-10-22T11:47:34.807Z,8.15
2022-10-22T11:50:25.549Z,8.95
2022-10-22T11:53:17.245Z,8.85
2022-10-22T11:55:49.969Z,9.80
2022-10-22T11:58:26.125Z,10.27
2022-10-22T12:00:53.445Z,8.77
2022-10-22T12:03:32.685Z,9.50
2022-10-22T12:06:12.410Z,11.63
2022-10-22T12:08:49.086Z,9.38
2022-10-22T12:11:24.809Z,8.82
2022-10-22T12:14:02.859Z,9.82
2022-10-22T12:17:01.734Z,8.55
2022-10-22T12:19:41.208Z,8.10
2022-10-22T12:22:13.686Z,9.43
2022-10-22T12:24:50.461Z,9.38
2022-10-22T12:27:23.450Z,8.77
2022-10-22T12:29:56.025Z,9.77
2022-10-22T12:32:24.500Z,9.07
2022-10-22T12:34:53.262Z,12.52
2022-10-22T12:37:21.130Z,11.70
2022-10-22T12:39:48.540Z,8.57
2022-10-22T12:42:18.310Z,9.80
2022-10-22T12:44:45.727Z,9.00
2022-10-22T12:47:18.005Z,9.60
2022-10-22T12:49:48.780Z,8.82
2022-10-22T12:52:23.805Z,9.15
2022-10-22T12:54:52.967Z,9.47
2022-10-22T12:57:21.291Z,10.48
2022-10-22T12:59:51.920Z,11.35
2022-10-22T13:02:27.691Z,9.90
2022-10-22T13:05:22.566Z,11.80
2022-10-22T13:07:53.010Z,15.32
2022-10-22T13:10:31.246Z,10.65
2022-10-22T13:12:59.407Z,10.95
2022-10-22T13:15:32.299Z,11.68
2022-10-22T13:18:22.658Z,10.73
2022-10-22T13:21:03.406Z,10.47
2022-10-22T13:23:33.507Z,9.00
2022-10-22T13:26:03.062Z,10.13
2022-10-22T13:28:32.570Z,10.57
2022-10-22T13:31:17.529Z,10.10
2022-10-22T13:33:48.051Z,8.93
2022-10-22T13:36:16.970Z,11.23
2022-10-22T13:38:45.607Z,10.63
2022-10-22T13:41:25.166Z,10.93
2022-10-22T13:43:53.566Z,10.00
2022-10-22T13:46:21.420Z,11.23
2022-10-22T13:48:50.376Z,11.10
2022-10-22T13:51:20.654Z,9.55
2022-10-22T13:53:49.691Z,12.82
2022-10-22T13:56:18.810Z,12.05
2022-10-22T13:58:47.016Z,12.27
2022-10-22T14:01:27.492Z,13.18
2022-10-22T14:04:02.215Z,11.70
2022-10-22T14:06:32.941Z,12.00
2022-10-22T14:09:05.833Z,14.95
2022-10-22T14:11:35.539Z,11.97
2022-10-22T14:14:09.296Z,12.20
2022-10-22T14:16:38.057Z,12.75
2022-10-22T14:19:10.742Z,13.30
2022-10-22T14:21:38.660Z,10.20
2022-10-22T14:24:08.360Z,14.23
2022-10-22T14:26:38.094Z,30.08
2022-10-22T14:29:09.929Z,28.65
2022-10-22T14:34:15.288Z,56.40
2022-10-22T14:36:46.026Z,59.20
2022-10-22T14:39:14.344Z,57.53
2022-10-22T14:41:42.881Z,46.85
2022-10-22T14:44:14.592Z,30.08
2022-10-22T14:46:44.559Z,21.88
2022-10-22T14:49:12.465Z,16.63
2022-10-22T14:51:39.906Z,11.80
2022-10-22T14:54:07.191Z,13.75
2022-10-22T14:56:34.829Z,13.45
2022-10-22T14:59:02.080Z,12.65
2022-10-22T15:01:29.542Z,12.07
2022-10-22T15:03:56.936Z,10.93
2022-10-22T15:06:24.185Z,13.10
2022-10-22T15:08:51.733Z,17.50
2022-10-22T15:11:19.308Z,12.48
2022-10-22T15:13:46.816Z,13.73
2022-10-22T15:16:16.700Z,14.48
2022-10-22T15:18:44.190Z,14.65
2022-10-22T15:21:20.256Z,14.07
2022-10-22T15:23:48.779Z,15.20
2022-10-22T15:26:16.968Z,20.47
2022-10-22T15:28:44.571Z,26.25
2022-10-22T15:31:14.822Z,22.55
2022-10-22T15:33:44.296Z,19.77
2022-10-22T15:36:14.810Z,22.45
2022-10-22T15:38:42.442Z,18.93
2022-10-22T15:41:12.253Z,15.88
2022-10-22T15:43:40.252Z,20.48
2022-10-22T15:46:19.228Z,22.70
2022-10-22T15:48:47.249Z,29.70
2022-10-22T15:51:18.303Z,17.00
2022-10-22T15:53:52.898Z,18.15
2022-10-22T15:56:22.222Z,15.35
2022-10-22T15:58:54.719Z,13.95
2022-10-22T16:01:22.533Z,13.43
2022-10-22T16:04:00.381Z,15.67
2022-10-22T16:06:48.568Z,14.02
2022-10-22T16:09:24.394Z,15.32
2022-10-22T16:14:26.122Z,17.70
2022-10-22T16:16:56.107Z,17.70
2022-10-22T16:19:24.652Z,15.60
2022-10-22T16:21:55.360Z,13.98
2022-10-22T16:24:23.517Z,13.27
2022-10-22T16:26:52.919Z,23.85
2022-10-22T16:29:20.549Z,16.63
2022-10-22T16:31:47.952Z,20.67
2022-10-22T16:34:15.366Z,19.90
2022-10-22T16:36:44.504Z,21.10
2022-10-22T16:39:11.996Z,21.23
2022-10-22T16:41:39.407Z,25.90
2022-10-22T16:44:08.985Z,25.42
2022-10-22T16:46:39.021Z,28.83
2022-10-22T16:49:08.094Z,28.80
2022-10-22T16:51:35.977Z,26.73
2022-10-22T16:54:05.592Z,33.60
2022-10-22T16:56:36.926Z,38.70
2022-10-22T16:59:04.360Z,36.20
2022-10-22T17:01:33.232Z,39.20
2022-10-22T17:04:03.122Z,38.60
2022-10-22T17:06:30.605Z,37.33
2022-10-22T17:08:58.144Z,60.10
2022-10-22T17:11:25.890Z,53.50
2022-10-22T17:13:54.727Z,48.13
2022-10-22T17:16:25.195Z,45.50
2022-10-22T17:18:55.099Z,44.80
2022-10-22T17:21:23.406Z,41.25
2022-10-22T17:23:55.980Z,45.50
2022-10-22T17:26:24.727Z,41.28
2022-10-22T17:28:52.146Z,36.65
2022-10-22T17:31:26.657Z,35.67
2022-10-22T17:33:56.186Z,38.10
2022-10-22T17:36:25.139Z,33.20
2022-10-22T17:38:55.264Z,29.75
2022-10-22T17:41:29.397Z,34.33
2022-10-22T17:43:59.622Z,37.17
2022-10-22T17:46:30.904Z,31.63
2022-10-22T17:49:03.846Z,35.22
2022-10-22T17:51:32.250Z,31.75
2022-10-22T17:54:00.281Z,33.75
2022-10-22T17:56:30.541Z,29.20
2022-10-22T17:59:00.098Z,57.85
2022-10-22T18:01:33.908Z,59.33
2022-10-22T18:04:04.024Z,40.13
2022-10-22T18:06:32.869Z,32.10
2022-10-22T18:09:00.336Z,32.07
2022-10-22T18:11:28.743Z,34.22
2022-10-22T18:13:58.411Z,34.28
2022-10-22T18:16:26.470Z,35.35
2022-10-22T18:18:56.473Z,37.30
2022-10-22T18:21:26.772Z,30.87
2022-10-22T18:23:54.667Z,33.67
2022-10-22T18:26:25.914Z,34.83
2022-10-22T18:28:55.064Z,38.45
2022-10-22T18:31:24.941Z,33.25
2022-10-22T18:36:27.366Z,34.85
2022-10-22T18:39:01.531Z,39.28
2022-10-22T18:41:30.686Z,38.80
2022-10-22T18:44:04.140Z,42.65
2022-10-22T18:46:34.961Z,33.10
2022-10-22T18:49:02.406Z,37.40
2022-10-22T18:51:32.000Z,38.72
2022-10-22T18:54:06.066Z,42.45
2022-10-22T18:56:47.371Z,43.15
2022-10-22T18:59:22.169Z,45.00
2022-10-22T19:01:49.663Z,39.70
2022-10-22T19:04:17.315Z,37.58
2022-10-22T19:06:46.013Z,34.25
2022-10-22T19:09:15.243Z,35.38
2022-10-22T19:11:46.724Z,34.80
2022-10-22T19:14:15.251Z,38.05
2022-10-22T19:16:42.814Z,31.30
2022-10-22T19:19:11.660Z,32.58
2022-10-22T19:21:39.062Z,34.13
2022-10-22T19:24:07.231Z,36.50
2022-10-22T19:26:34.901Z,29.83
2022-10-22T19:29:02.905Z,34.95
2022-10-22T19:31:31.546Z,28.00
2022-10-22T19:34:00.965Z,32.00
2022-10-22T19:36:30.545Z,31.57
2022-10-22T19:38:58.541Z,34.55
2022-10-22T19:41:27.585Z,32.35
2022-10-22T19:43:56.985Z,30.30
2022-10-22T19:46:26.021Z,34.50
2022-10-22T19:48:53.635Z,32.73
2022-10-22T19:51:23.061Z,32.63
2022-10-22T19:53:51.066Z,31.00
2022-10-22T19:56:21.186Z,39.00
2022-10-22T19:58:48.626Z,41.58
2022-10-22T20:01:18.129Z,37.07
2022-10-22T20:03:45.986Z,33.42
2022-10-22T20:06:15.953Z,31.55
2022-10-22T20:08:43.696Z,28.88
2022-10-22T20:11:22.078Z,32.90
2022-10-22T20:13:52.235Z,27.20
2022-10-22T20:16:23.313Z,32.08
2022-10-22T20:18:52.067Z,47.92
2022-10-22T20:21:20.270Z,45.10
2022-10-22T20:23:51.424Z,39.03
2022-10-22T20:26:18.995Z,36.07
2022-10-22T20:28:46.386Z,34.70
2022-10-22T20:31:19.394Z,36.97
2022-10-22T20:33:48.140Z,37.42
2022-10-22T20:36:21.620Z,29.90
2022-10-22T20:38:49.702Z,35.40
2022-10-22T20:41:22.514Z,35.28
2022-10-22T20:43:51.583Z,38.67
2022-10-22T20:46:21.425Z,37.20
2022-10-22T20:48:51.706Z,34.22
2022-10-22T20:51:19.424Z,34.77
2022-10-22T20:53:46.900Z,33.95
2022-10-22T20:56:14.906Z,35.47
2022-10-22T20:58:48.164Z,37.40
2022-10-22T21:01:24.487Z,33.83
2022-10-22T21:03:53.024Z,35.00
2022-10-22T21:06:23.491Z,36.95
2022-10-22T21:08:51.872Z,34.50
2022-10-22T21:11:20.759Z,40.00
2022-10-22T21:13:48.154Z,32.97
2022-10-22T21:16:17.780Z,35.33
2022-10-22T21:18:46.505Z,36.05
2022-10-22T21:21:14.434Z,39.53
2022-10-22T21:23:41.834Z,36.78
2022-10-22T21:26:09.254Z,43.67
2022-10-22T21:28:37.514Z,38.40
2022-10-22T21:31:07.781Z,37.25
2022-10-22T21:33:40.270Z,33.17
2022-10-22T21:36:09.547Z,35.03
2022-10-22T21:38:37.962Z,34.58
2022-10-22T21:41:11.000Z,32.97
2022-10-22T21:43:40.440Z,31.17
2022-10-22T21:46:10.080Z,30.00
2022-10-22T21:48:39.081Z,27.27
2022-10-22T21:51:11.796Z,29.92
2022-10-22T21:53:40.026Z,29.60
2022-10-22T21:56:08.716Z,29.17
2022-10-22T21:58:36.485Z,28.20
2022-10-22T22:01:04.166Z,26.00
2022-10-22T22:03:31.650Z,28.75
2022-10-22T22:06:04.527Z,29.00
2022-10-22T22:08:33.586Z,36.13
2022-10-22T22:11:03.514Z,30.92
2022-10-22T22:13:31.928Z,32.30
2022-10-22T22:16:07.851Z,27.25
2022-10-22T22:18:37.125Z,32.53
2022-10-22T22:21:07.421Z,35.45
2022-10-22T22:23:38.161Z,31.55
2022-10-22T22:26:06.245Z,28.45
2022-10-22T22:28:34.246Z,28.95
2022-10-22T22:31:02.246Z,29.83
2022-10-22T22:33:30.157Z,28.58
2022-10-22T22:36:00.451Z,29.25
2022-10-22T22:38:28.361Z,28.27
2022-10-22T22:40:58.996Z,29.13
2022-10-22T22:43:28.241Z,26.73
2022-10-22T22:46:04.091Z,26.13
2022-10-22T22:48:32.450Z,29.08
2022-10-22T22:51:00.401Z,22.33
2022-10-22T22:53:28.948Z,24.70
2022-10-22T22:56:18.331Z,24.03
2022-10-22T22:58:46.056Z,25.15
2022-10-22T23:01:17.801Z,25.55
2022-10-22T23:03:47.477Z,25.10
2022-10-22T23:06:15.808Z,22.75
2022-10-22T23:08:44.417Z,23.40
2022-10-22T23:11:14.118Z,20.65
2022-10-22T23:13:43.320Z,22.42
2022-10-22T23:16:20.557Z,22.42
2022-10-22T23:18:50.013Z,20.90
2022-10-22T23:21:19.601Z,23.93
2022-10-22T23:23:49.916Z,24.55
2022-10-22T23:26:23.281Z,19.75
2022-10-22T23:28:51.320Z,21.05
2022-10-22T23:31:20.532Z,21.25
2022-10-22T23:33:48.805Z,19.90
2022-10-22T23:36:16.317Z,20.65
2022-10-22T23:38:44.276Z,21.38
2022-10-22T23:41:11.650Z,23.98
2022-10-22T23:43:39.345Z,25.15
2022-10-22T23:46:08.601Z,22.47
2022-10-22T23:48:36.881Z,19.90
2022-10-22T23:51:10.011Z,20.90
2022-10-22T23:53:37.965Z,19.30
2022-10-22T23:56:11.201Z,21.75
2022-10-22T23:58:39.443Z,19.77
